createdAt,value
2023-01-19T00:02:00.500Z,98766.16
2023-01-19T00:04:28.089Z,98776.81
2023-01-19T00:06:56.115Z,98781.34
2023-01-19T00:09:23.621Z,98799.34
2023-01-19T00:11:51.614Z,98809.09
2023-01-19T00:14:21.066Z,98813.31
2023-01-19T00:16:49.032Z,98816.19
2023-01-19T00:19:16.811Z,98824.56
2023-01-19T00:21:45.168Z,98817.53
2023-01-19T00:24:12.839Z,98824.91
2023-01-19T00:26:40.864Z,98828.50
2023-01-19T00:29:08.760Z,98838.63
2023-01-19T00:31:38.866Z,98842.13
2023-01-19T00:34:07.633Z,98842.59
2023-01-19T00:36:35.709Z,98853.13
2023-01-19T00:39:03.306Z,98853.31
2023-01-19T00:41:31.618Z,98853.28
2023-01-19T00:43:59.391Z,98849.16
2023-01-19T00:46:27.259Z,98855.78
2023-01-19T00:48:56.446Z,98862.19
2023-01-19T00:51:24.437Z,98863.25
2023-01-19T00:53:51.998Z,98862.91
2023-01-19T00:56:20.183Z,98868.03
2023-01-19T00:58:47.719Z,98879.88
2023-01-19T01:01:15.791Z,98886.44
2023-01-19T01:03:43.411Z,98884.69
2023-01-19T01:06:13.106Z,98886.72
2023-01-19T01:08:41.155Z,98886.56
2023-01-19T01:11:09.365Z,98888.09
2023-01-19T01:13:37.476Z,98896.72
2023-01-19T01:16:06.515Z,98897.03
2023-01-19T01:18:34.361Z,98908.56
2023-01-19T01:21:02.720Z,98917.00
2023-01-19T01:23:32.064Z,98910.78
2023-01-19T01:26:00.414Z,98913.66
2023-01-19T01:28:27.945Z,98918.25
2023-01-19T01:30:57.146Z,98914.63
2023-01-19T01:33:41.341Z,98921.81
2023-01-19T01:36:11.316Z,98925.31
2023-01-19T01:38:41.207Z,98927.19
2023-01-19T01:41:10.003Z,98922.03
2023-01-19T01:43:48.967Z,98927.41
2023-01-19T01:46:17.943Z,98919.28
2023-01-19T01:48:52.560Z,98915.94
2023-01-19T01:51:26.352Z,98911.50
2023-01-19T01:54:14.096Z,98922.28
2023-01-19T01:56:45.001Z,98929.78
2023-01-19T01:59:15.791Z,98931.59
2023-01-19T02:01:44.255Z,98932.59
2023-01-19T02:04:11.875Z,98935.56
2023-01-19T02:06:42.966Z,98934.72
2023-01-19T02:09:12.232Z,98936.38
2023-01-19T02:11:41.718Z,98940.53
2023-01-19T02:14:09.325Z,98936.75
2023-01-19T02:16:38.467Z,98945.41
2023-01-19T02:19:08.936Z,98939.72
2023-01-19T02:21:44.644Z,98945.78
2023-01-19T02:24:14.239Z,98952.25
2023-01-19T02:26:44.966Z,98941.63
2023-01-19T02:29:16.568Z,98950.13
2023-01-19T02:31:44.738Z,98949.03
2023-01-19T02:34:14.868Z,98952.38
2023-01-19T02:36:48.961Z,98950.47
2023-01-19T02:39:20.548Z,98949.03
2023-01-19T02:41:53.369Z,98955.47
2023-01-19T02:44:24.216Z,98958.13
2023-01-19T02:46:54.382Z,98958.03
2023-01-19T02:49:22.048Z,98959.38
2023-01-19T02:51:50.738Z,98961.41
2023-01-19T02:54:33.845Z,98956.72
2023-01-19T02:57:26.477Z,98954.69
2023-01-19T03:00:07.629Z,98959.06
2023-01-19T03:02:48.771Z,98948.03
2023-01-19T03:05:27.356Z,98949.78
2023-01-19T03:08:06.397Z,98946.59
2023-01-19T03:10:45.577Z,98955.63
2023-01-19T03:13:19.158Z,98956.09
2023-01-19T03:15:50.369Z,98954.75
2023-01-19T03:18:23.110Z,98961.59
2023-01-19T03:20:52.627Z,98961.88
2023-01-19T03:23:24.334Z,98962.28
2023-01-19T03:25:56.262Z,98961.59
2023-01-19T03:28:26.884Z,98965.75
2023-01-19T03:30:59.164Z,98960.97
2023-01-19T03:33:32.339Z,98966.38
2023-01-19T03:36:05.670Z,98965.41
2023-01-19T03:38:38.531Z,98957.13
2023-01-19T03:41:11.707Z,98956.91
2023-01-19T03:43:41.167Z,98955.53
2023-01-19T03:46:09.893Z,98957.88
2023-01-19T03:48:38.974Z,98959.19
2023-01-19T03:51:09.088Z,98948.72
2023-01-19T03:53:37.379Z,98965.31
2023-01-19T03:56:08.800Z,98963.50
2023-01-19T03:58:38.328Z,98964.84
2023-01-19T04:01:05.961Z,98956.53
2023-01-19T04:03:33.987Z,98958.09
2023-01-19T04:06:01.608Z,98961.19
2023-01-19T04:08:29.660Z,98970.56
2023-01-19T04:10:58.271Z,98971.06
2023-01-19T04:13:26.452Z,98965.50
2023-01-19T04:15:55.602Z,98967.75
2023-01-19T04:18:23.545Z,98964.72
2023-01-19T04:20:50.985Z,98971.56
2023-01-19T04:23:19.039Z,98985.09
2023-01-19T04:25:46.549Z,98980.06
2023-01-19T04:28:14.325Z,98977.19
2023-01-19T04:30:41.839Z,98994.06
2023-01-19T04:33:11.057Z,98995.16
2023-01-19T04:35:38.759Z,98987.56
2023-01-19T04:38:06.805Z,98990.22
2023-01-19T04:40:34.316Z,98999.47
2023-01-19T04:43:02.523Z,99005.00
2023-01-19T04:45:30.265Z,99006.78
2023-01-19T04:47:58.762Z,99010.69
2023-01-19T04:50:27.887Z,99018.78
2023-01-19T04:52:56.002Z,99032.66
2023-01-19T04:55:23.981Z,99032.72
2023-01-19T04:57:51.942Z,99040.38
2023-01-19T05:00:19.911Z,99045.34
2023-01-19T05:02:48.100Z,99052.19
2023-01-19T05:05:16.298Z,99060.44
2023-01-19T05:07:45.547Z,99065.03
2023-01-19T05:10:13.601Z,99067.41
2023-01-19T05:12:41.423Z,99075.19
2023-01-19T05:15:13.205Z,99087.41
2023-01-19T05:17:40.737Z,99098.28
2023-01-19T05:20:11.155Z,99101.78
2023-01-19T05:22:38.795Z,99087.25
2023-01-19T05:25:09.522Z,99094.75
2023-01-19T05:27:37.442Z,99096.56
2023-01-19T05:30:09.259Z,99098.53
2023-01-19T05:32:36.885Z,99092.81
2023-01-19T05:35:05.346Z,99092.81
2023-01-19T05:37:32.952Z,99089.59
2023-01-19T05:40:01.045Z,99087.22
2023-01-19T05:42:32.113Z,99077.25
2023-01-19T05:45:00.743Z,99076.25
2023-01-19T05:47:29.759Z,99080.00
2023-01-19T05:49:57.719Z,99089.59
2023-01-19T05:52:25.407Z,99084.72
2023-01-19T05:54:53.430Z,99086.25
2023-01-19T05:57:21.099Z,99092.69
2023-01-19T05:59:50.692Z,99099.28
2023-01-19T06:02:18.320Z,99113.97
2023-01-19T06:04:46.401Z,99119.56
2023-01-19T06:07:14.080Z,99125.72
2023-01-19T06:09:41.890Z,99134.41
2023-01-19T06:12:09.506Z,99134.66
2023-01-19T06:14:37.665Z,99147.75
2023-01-19T06:17:07.142Z,99146.22
2023-01-19T06:19:37.741Z,99150.53
2023-01-19T06:22:05.792Z,99145.69
2023-01-19T06:24:33.779Z,99139.13
2023-01-19T06:27:01.450Z,99144.84
2023-01-19T06:29:29.784Z,99148.75
2023-01-19T06:31:59.979Z,99157.97
2023-01-19T06:34:29.597Z,99161.44
2023-01-19T06:36:57.783Z,99164.53
2023-01-19T06:39:26.023Z,99159.38
2023-01-19T06:41:53.891Z,99162.47
2023-01-19T06:44:21.765Z,99163.00
2023-01-19T06:46:49.927Z,99161.03
2023-01-19T06:49:17.901Z,99164.81
2023-01-19T06:51:46.893Z,99174.59
2023-01-19T06:54:14.783Z,99171.09
2023-01-19T06:56:42.385Z,99179.31
2023-01-19T06:59:10.365Z,99174.69
2023-01-19T07:01:40.663Z,99178.47
2023-01-19T07:04:08.849Z,99185.13
2023-01-19T07:06:36.685Z,99188.78
2023-01-19T07:09:06.318Z,99179.88
2023-01-19T07:11:34.241Z,99168.84
2023-01-19T07:14:02.392Z,99177.78
2023-01-19T07:16:32.514Z,99179.56
2023-01-19T07:19:03.749Z,99174.56
2023-01-19T07:21:31.319Z,99172.75
2023-01-19T07:23:59.378Z,99172.47
2023-01-19T07:26:28.661Z,99179.16
2023-01-19T07:28:57.035Z,99175.94
2023-01-19T07:31:24.797Z,99176.09
2023-01-19T07:33:52.860Z,99181.81
2023-01-19T07:36:20.400Z,99187.25
2023-01-19T07:38:48.560Z,99187.00
2023-01-19T07:41:16.135Z,99188.38
2023-01-19T07:43:45.615Z,99185.28
2023-01-19T07:46:13.131Z,99186.00
2023-01-19T07:48:41.134Z,99186.16
2023-01-19T07:51:12.493Z,99176.09
2023-01-19T07:53:40.838Z,99177.06
2023-01-19T07:56:08.887Z,99182.94
2023-01-19T07:58:36.804Z,99180.72
2023-01-19T08:01:08.526Z,99171.22
2023-01-19T08:03:36.608Z,99181.41
2023-01-19T08:06:05.506Z,99184.75
2023-01-19T08:08:33.981Z,99186.03
2023-01-19T08:11:01.531Z,99187.41
2023-01-19T08:13:32.079Z,99192.28
2023-01-19T08:15:59.616Z,99193.69
2023-01-19T08:18:29.479Z,99200.38
2023-01-19T08:20:58.880Z,99204.28
2023-01-19T08:23:28.283Z,99202.59
2023-01-19T08:25:55.944Z,99208.56
2023-01-19T08:28:24.194Z,99219.06
2023-01-19T08:30:51.833Z,99219.91
2023-01-19T08:33:20.401Z,99217.91
2023-01-19T08:35:51.152Z,99211.84
2023-01-19T08:38:19.048Z,99215.03
2023-01-19T08:40:46.656Z,99218.66
2023-01-19T08:43:17.099Z,99214.69
2023-01-19T08:45:50.441Z,99215.75
2023-01-19T08:48:19.943Z,99216.53
2023-01-19T08:50:49.937Z,99212.91
2023-01-19T08:53:19.480Z,99218.00
2023-01-19T08:55:47.352Z,99222.03
2023-01-19T08:58:15.704Z,99222.13
2023-01-19T09:00:43.185Z,99215.66
2023-01-19T09:03:12.754Z,99226.28
2023-01-19T09:05:40.726Z,99221.03
2023-01-19T09:08:12.388Z,99244.69
2023-01-19T09:10:44.496Z,99249.50
2023-01-19T09:13:13.206Z,99254.41
2023-01-19T09:15:42.030Z,99266.38
2023-01-19T09:18:12.129Z,99265.88
2023-01-19T09:20:40.588Z,99280.69
2023-01-19T09:23:10.999Z,99281.03
2023-01-19T09:25:39.296Z,99286.31
2023-01-19T09:28:08.157Z,99285.50
2023-01-19T09:30:37.090Z,99279.47
2023-01-19T09:33:06.109Z,99278.19
2023-01-19T09:35:33.892Z,99275.44
2023-01-19T09:38:02.233Z,99274.94
2023-01-19T09:40:32.247Z,99274.09
2023-01-19T09:43:12.069Z,99264.19
2023-01-19T09:45:45.190Z,99259.78
2023-01-19T09:48:26.499Z,99258.84
2023-01-19T09:50:56.629Z,99258.00
2023-01-19T09:53:39.123Z,99256.00
2023-01-19T09:56:12.798Z,99243.25
2023-01-19T09:58:41.590Z,99240.34
2023-01-19T10:01:24.354Z,99243.09
2023-01-19T10:04:08.409Z,99241.97
2023-01-19T10:06:36.787Z,99241.84
2023-01-19T10:09:11.386Z,99237.50
2023-01-19T10:11:53.804Z,99228.34
2023-01-19T10:14:29.263Z,99225.84
2023-01-19T10:17:10.483Z,99231.66
2023-01-19T10:19:46.535Z,99226.50
2023-01-19T10:22:20.584Z,99230.63
2023-01-19T10:24:53.316Z,99241.13
2023-01-19T10:27:26.456Z,99236.84
2023-01-19T10:29:54.697Z,99225.47
2023-01-19T10:32:24.090Z,99227.47
2023-01-19T10:34:53.291Z,99225.44
2023-01-19T10:37:30.517Z,99225.09
2023-01-19T10:40:07.969Z,99233.94
2023-01-19T10:42:38.519Z,99245.72
2023-01-19T10:45:15.775Z,99244.75
2023-01-19T10:47:45.983Z,99247.53
2023-01-19T10:50:25.629Z,99233.91
2023-01-19T10:52:54.894Z,99237.41
2023-01-19T10:55:30.576Z,99239.88
2023-01-19T10:58:00.178Z,99240.31
2023-01-19T11:00:34.319Z,99240.53
2023-01-19T11:03:02.395Z,99248.44
2023-01-19T11:05:32.348Z,99239.06
2023-01-19T11:08:00.528Z,99241.28
2023-01-19T11:10:29.868Z,99243.41
2023-01-19T11:13:04.889Z,99243.22
2023-01-19T11:15:35.154Z,99242.41
2023-01-19T11:18:05.071Z,99241.25
2023-01-19T11:20:40.719Z,99240.31
2023-01-19T11:23:20.282Z,99240.09
2023-01-19T11:25:51.074Z,99240.34
2023-01-19T11:28:26.157Z,99242.22
2023-01-19T11:30:56.039Z,99239.47
2023-01-19T11:33:25.528Z,99235.78
2023-01-19T11:36:03.495Z,99229.91
2023-01-19T11:38:31.460Z,99228.25
2023-01-19T11:41:01.341Z,99232.66
2023-01-19T11:43:43.506Z,99221.97
2023-01-19T11:46:17.701Z,99213.47
2023-01-19T11:48:52.381Z,99217.97
2023-01-19T11:51:21.834Z,99214.75
2023-01-19T11:53:52.875Z,99208.63
2023-01-19T11:56:24.417Z,99218.09
2023-01-19T11:58:53.416Z,99214.63
2023-01-19T12:01:24.841Z,99216.53
2023-01-19T12:03:58.749Z,99213.56
2023-01-19T12:06:31.428Z,99209.31
2023-01-19T12:09:03.478Z,99213.50
2023-01-19T12:11:34.896Z,99193.13
2023-01-19T12:14:07.100Z,99199.38
2023-01-19T12:16:38.170Z,99197.47
2023-01-19T12:19:11.087Z,99197.44
2023-01-19T12:21:39.351Z,99195.31
2023-01-19T12:24:15.077Z,99189.75
2023-01-19T12:26:51.269Z,99189.41
2023-01-19T12:29:23.068Z,99186.09
2023-01-19T12:32:19.658Z,99189.50
2023-01-19T12:34:49.289Z,99189.22
2023-01-19T12:37:37.369Z,99189.00
2023-01-19T12:40:20.576Z,99192.25
2023-01-19T12:42:55.332Z,99189.97
2023-01-19T12:45:29.104Z,99184.00
2023-01-19T12:47:57.128Z,99187.16
2023-01-19T12:50:25.985Z,99192.47
2023-01-19T12:52:56.771Z,99185.53
2023-01-19T12:55:27.233Z,99191.84
2023-01-19T12:57:59.259Z,99190.88
2023-01-19T13:00:41.518Z,99180.97
2023-01-19T13:03:51.699Z,99190.00
2023-01-19T13:06:19.364Z,99185.34
2023-01-19T13:08:59.156Z,99189.81
2023-01-19T13:11:30.303Z,99195.53
2023-01-19T13:14:34.656Z,99189.03
2023-01-19T13:17:36.138Z,99192.59
2023-01-19T13:20:27.381Z,99196.41
2023-01-19T13:23:17.379Z,99205.41
2023-01-19T13:25:50.972Z,99199.13
2023-01-19T13:28:30.769Z,99197.50
2023-01-19T13:31:00.074Z,99197.91
2023-01-19T13:33:40.994Z,99209.44
2023-01-19T13:36:24.603Z,99202.78
2023-01-19T13:38:52.851Z,99203.00
2023-01-19T13:41:23.690Z,99200.16
2023-01-19T13:43:58.739Z,99210.66
2023-01-19T13:46:28.997Z,99215.19
2023-01-19T13:49:01.647Z,99211.47
2023-01-19T13:51:29.623Z,99212.66
2023-01-19T13:53:57.981Z,99214.97
2023-01-19T13:56:29.654Z,99209.81
2023-01-19T13:59:02.864Z,99221.16
2023-01-19T14:01:31.066Z,99220.13
2023-01-19T14:04:00.828Z,99215.59
2023-01-19T14:06:35.940Z,99219.25
2023-01-19T14:09:15.310Z,99218.56
2023-01-19T14:11:43.524Z,99220.56
2023-01-19T14:14:27.802Z,99218.19
2023-01-19T14:16:55.895Z,99219.72
2023-01-19T14:19:25.606Z,99224.19
2023-01-19T14:22:08.829Z,99224.47
2023-01-19T14:24:36.514Z,99227.31
2023-01-19T14:27:10.694Z,99228.31
2023-01-19T14:29:38.362Z,99234.41
2023-01-19T14:32:12.862Z,99229.56
2023-01-19T14:34:43.317Z,99241.47
2023-01-19T14:37:23.736Z,99241.91
2023-01-19T14:39:58.226Z,99243.19
2023-01-19T14:42:29.558Z,99245.16
2023-01-19T14:45:00.234Z,99249.50
2023-01-19T14:47:37.651Z,99257.53
2023-01-19T14:50:21.268Z,99258.00
2023-01-19T14:52:54.178Z,99256.47
2023-01-19T14:55:25.362Z,99268.03
2023-01-19T14:57:54.959Z,99265.09
2023-01-19T15:00:23.325Z,99261.63
2023-01-19T15:02:51.403Z,99256.09
2023-01-19T15:05:20.802Z,99275.81
2023-01-19T15:07:49.562Z,99275.44
2023-01-19T15:10:20.831Z,99280.72
2023-01-19T15:12:50.157Z,99272.41
2023-01-19T15:15:20.343Z,99272.22
2023-01-19T15:17:48.928Z,99274.38
2023-01-19T15:20:18.214Z,99282.19
2023-01-19T15:22:48.902Z,99281.47
2023-01-19T15:25:18.110Z,99276.00
2023-01-19T15:27:51.807Z,99271.69
2023-01-19T15:30:21.762Z,99281.91
2023-01-19T15:32:50.039Z,99284.31
2023-01-19T15:35:19.464Z,99282.34
2023-01-19T15:37:52.199Z,99283.53
2023-01-19T15:40:20.650Z,99288.69
2023-01-19T15:42:48.922Z,99287.00
2023-01-19T15:45:35.315Z,99290.56
2023-01-19T15:48:06.280Z,99307.22
2023-01-19T15:50:35.954Z,99304.28
2023-01-19T15:53:05.977Z,99308.50
2023-01-19T15:55:34.016Z,99320.78
2023-01-19T15:58:01.881Z,99307.78
2023-01-19T16:00:30.798Z,99312.38
2023-01-19T16:03:00.533Z,99306.53
2023-01-19T16:05:42.672Z,99293.66
2023-01-19T16:08:16.824Z,99303.69
2023-01-19T16:10:44.689Z,99310.53
2023-01-19T16:13:12.947Z,99310.41
2023-01-19T16:15:41.077Z,99314.16
2023-01-19T16:18:09.228Z,99314.03
2023-01-19T16:20:36.995Z,99327.88
2023-01-19T16:23:20.107Z,99326.13
2023-01-19T16:25:57.655Z,99327.78
2023-01-19T16:28:26.911Z,99330.72
2023-01-19T16:30:54.681Z,99327.44
2023-01-19T16:33:23.288Z,99320.75
2023-01-19T16:35:51.249Z,99321.31
2023-01-19T16:38:19.508Z,99309.94
2023-01-19T16:40:47.336Z,99317.63
2023-01-19T16:43:16.933Z,99314.09
2023-01-19T16:45:58.216Z,99321.78
2023-01-19T16:48:26.562Z,99327.34
2023-01-19T16:51:02.444Z,99328.34
2023-01-19T16:53:31.344Z,99327.75
2023-01-19T16:55:58.991Z,99336.06
2023-01-19T16:58:28.525Z,99328.19
2023-01-19T17:00:56.196Z,99320.41
2023-01-19T17:03:24.513Z,99315.25
2023-01-19T17:05:52.920Z,99316.19
2023-01-19T17:08:21.626Z,99318.53
2023-01-19T17:10:49.178Z,99320.16
2023-01-19T17:13:17.323Z,99325.13
2023-01-19T17:15:46.491Z,99328.00
2023-01-19T17:18:14.639Z,99332.13
2023-01-19T17:20:42.303Z,99332.59
2023-01-19T17:23:10.319Z,99337.13
2023-01-19T17:25:38.081Z,99345.38
2023-01-19T17:28:06.553Z,99340.16
2023-01-19T17:30:34.377Z,99331.91
2023-01-19T17:33:04.543Z,99320.59
2023-01-19T17:35:34.483Z,99316.13
2023-01-19T17:38:02.500Z,99322.56
2023-01-19T17:40:31.178Z,99331.13
2023-01-19T17:42:59.349Z,99330.19
2023-01-19T17:45:27.443Z,99337.00
2023-01-19T17:47:55.798Z,99340.97
2023-01-19T17:50:25.224Z,99342.91
2023-01-19T17:52:55.431Z,99342.19
2023-01-19T17:55:23.201Z,99335.25
2023-01-19T17:57:51.295Z,99336.72
2023-01-19T18:00:19.728Z,99336.09
2023-01-19T18:02:49.822Z,99337.31
2023-01-19T18:05:18.253Z,99349.16
2023-01-19T18:07:48.071Z,99344.50
2023-01-19T18:10:16.641Z,99353.34
2023-01-19T18:12:47.381Z,99366.56
2023-01-19T18:15:16.886Z,99373.28
2023-01-19T18:17:48.344Z,99377.28
2023-01-19T18:20:18.089Z,99377.16
2023-01-19T18:22:48.313Z,99383.31
2023-01-19T18:25:16.035Z,99378.72
2023-01-19T18:27:44.282Z,99390.22
2023-01-19T18:30:12.892Z,99376.25
2023-01-19T18:32:41.161Z,99380.22
2023-01-19T18:35:09.456Z,99385.84
2023-01-19T18:37:37.662Z,99381.34
2023-01-19T18:40:08.389Z,99386.34
2023-01-19T18:42:37.007Z,99381.88
2023-01-19T18:45:05.685Z,99391.00
2023-01-19T18:47:33.814Z,99394.31
2023-01-19T18:50:01.582Z,99388.44
2023-01-19T18:52:29.941Z,99384.59
2023-01-19T18:54:57.969Z,99386.78
2023-01-19T18:57:27.830Z,99390.13
2023-01-19T18:59:55.705Z,99380.56
2023-01-19T19:02:23.906Z,99378.19
2023-01-19T19:04:52.048Z,99389.09
2023-01-19T19:07:20.529Z,99381.69
2023-01-19T19:09:48.232Z,99386.59
2023-01-19T19:12:16.369Z,99391.38
2023-01-19T19:14:45.627Z,99387.56
2023-01-19T19:17:13.738Z,99393.06
2023-01-19T19:19:41.236Z,99387.34
2023-01-19T19:22:09.243Z,99384.22
2023-01-19T19:24:37.408Z,99390.91
2023-01-19T19:27:08.533Z,99395.81
2023-01-19T19:29:36.221Z,99389.31
2023-01-19T19:32:06.021Z,99386.78
2023-01-19T19:34:33.556Z,99405.56
2023-01-19T19:37:01.787Z,99406.81
2023-01-19T19:39:30.084Z,99405.41
2023-01-19T19:41:58.136Z,99406.34
2023-01-19T19:44:25.790Z,99412.06
2023-01-19T19:46:54.063Z,99415.19
2023-01-19T19:49:23.250Z,99414.06
2023-01-19T19:51:51.122Z,99410.97
2023-01-19T19:54:19.111Z,99410.50
2023-01-19T19:56:47.746Z,99413.56
2023-01-19T19:59:15.366Z,99417.19
2023-01-19T20:01:43.789Z,99424.41
2023-01-19T20:04:13.415Z,99428.50
2023-01-19T20:06:44.214Z,99437.63
2023-01-19T20:09:12.364Z,99438.50
2023-01-19T20:11:41.313Z,99446.50
2023-01-19T20:14:11.262Z,99445.19
2023-01-19T20:16:39.892Z,99450.09
2023-01-19T20:19:07.412Z,99458.03
2023-01-19T20:21:36.613Z,99458.25
2023-01-19T20:24:08.373Z,99456.56
2023-01-19T20:26:39.766Z,99464.09
2023-01-19T20:29:07.567Z,99469.31
2023-01-19T20:31:37.455Z,99467.66
2023-01-19T20:34:07.981Z,99479.34
2023-01-19T20:36:36.381Z,99475.47
2023-01-19T20:39:06.205Z,99482.94
2023-01-19T20:41:34.507Z,99482.22
2023-01-19T20:44:02.164Z,99479.47
2023-01-19T20:46:30.289Z,99484.47
2023-01-19T20:48:58.036Z,99484.53
2023-01-19T20:51:25.979Z,99482.16
2023-01-19T20:53:53.818Z,99482.09
2023-01-19T20:56:23.300Z,99476.00
2023-01-19T20:58:51.159Z,99475.03
2023-01-19T21:01:21.473Z,99469.88
2023-01-19T21:03:50.063Z,99475.03
2023-01-19T21:06:19.010Z,99487.00
2023-01-19T21:08:46.914Z,99476.84
2023-01-19T21:11:15.737Z,99473.53
2023-01-19T21:13:45.024Z,99478.13
2023-01-19T21:16:13.264Z,99473.41
2023-01-19T21:18:41.021Z,99479.88
2023-01-19T21:21:17.713Z,99484.47
2023-01-19T21:23:52.360Z,99489.81
2023-01-19T21:26:20.263Z,99498.44
2023-01-19T21:28:49.377Z,99502.22
2023-01-19T21:31:17.636Z,99491.88
2023-01-19T21:33:45.426Z,99503.22
2023-01-19T21:36:13.488Z,99508.38
2023-01-19T21:38:41.104Z,99492.38
2023-01-19T21:41:10.991Z,99495.63
2023-01-19T21:43:40.209Z,99493.88
2023-01-19T21:46:14.948Z,99503.03
2023-01-19T21:48:42.674Z,99500.44
2023-01-19T21:51:10.586Z,99503.66
2023-01-19T21:53:38.536Z,99503.66
2023-01-19T21:56:07.063Z,99508.88
2023-01-19T21:58:35.030Z,99503.47
2023-01-19T22:01:05.962Z,99506.19
2023-01-19T22:03:35.294Z,99503.66
2023-01-19T22:06:05.171Z,99510.31
2023-01-19T22:08:33.223Z,99503.94
2023-01-19T22:11:05.115Z,99498.19
2023-01-19T22:13:33.645Z,99496.03
2023-01-19T22:16:01.816Z,99504.66
2023-01-19T22:18:29.576Z,99502.28
2023-01-19T22:21:07.716Z,99505.69
2023-01-19T22:23:35.431Z,99498.16
2023-01-19T22:26:03.673Z,99503.47
2023-01-19T22:28:31.493Z,99503.88
2023-01-19T22:31:07.195Z,99501.53
2023-01-19T22:33:35.485Z,99508.13
2023-01-19T22:36:16.473Z,99525.97
2023-01-19T22:38:44.742Z,99519.97
2023-01-19T22:41:15.002Z,99524.75
2023-01-19T22:43:43.181Z,99529.75
2023-01-19T22:46:11.353Z,99526.69
2023-01-19T22:48:38.881Z,99526.09
2023-01-19T22:51:07.001Z,99532.47
2023-01-19T22:53:35.967Z,99532.31
2023-01-19T22:56:10.820Z,99534.97
2023-01-19T22:58:38.919Z,99542.41
2023-01-19T23:01:07.638Z,99545.88
2023-01-19T23:03:35.486Z,99551.78
2023-01-19T23:06:05.567Z,99556.81
2023-01-19T23:08:33.428Z,99544.16
2023-01-19T23:11:06.413Z,99552.63
2023-01-19T23:13:34.467Z,99551.84
2023-01-19T23:16:03.531Z,99560.81
2023-01-19T23:18:31.425Z,99558.75
2023-01-19T23:21:03.655Z,99558.19
2023-01-19T23:23:31.323Z,99560.66
2023-01-19T23:26:00.763Z,99555.16
2023-01-19T23:28:29.935Z,99554.72
2023-01-19T23:30:57.966Z,99550.56
2023-01-19T23:33:25.637Z,99555.13
2023-01-19T23:35:55.685Z,99556.09
2023-01-19T23:38:23.198Z,99557.56
2023-01-19T23:40:51.254Z,99556.50
2023-01-19T23:43:18.840Z,99561.00
2023-01-19T23:45:48.432Z,99565.38
2023-01-19T23:48:15.969Z,99569.81
2023-01-19T23:50:43.979Z,99567.72
2023-01-19T23:53:11.638Z,99583.06
2023-01-19T23:55:39.756Z,99580.28
2023-01-19T23:58:07.323Z,99577.28
